createdAt,value
2022-12-15T00:00:00.707Z,-6.05
2022-12-15T00:02:47.282Z,-6.20
2022-12-15T00:05:32.559Z,-6.45
2022-12-15T00:08:24.801Z,-6.68
2022-12-15T00:11:10.017Z,-6.82
2022-12-15T00:13:55.527Z,-6.82
2022-12-15T00:16:41.156Z,-6.91
2022-12-15T00:19:28.176Z,-7.06
2022-12-15T00:22:13.639Z,-7.05
2022-12-15T00:24:59.186Z,-6.78
2022-12-15T00:27:44.591Z,-6.84
2022-12-15T00:30:30.454Z,-6.80
2022-12-15T00:33:15.741Z,-6.78
2022-12-15T00:36:02.290Z,-6.99
2022-12-15T00:38:43.590Z,-7.18
2022-12-15T00:41:12.817Z,-7.39
2022-12-15T00:43:40.659Z,-7.48
2022-12-15T00:46:26.374Z,-7.66
2022-12-15T00:48:54.243Z,-7.63
2022-12-15T00:51:22.571Z,-7.47
2022-12-15T00:54:11.860Z,-7.36
2022-12-15T00:56:59.961Z,-7.32
2022-12-15T00:59:45.416Z,-7.39
2022-12-15T01:02:30.935Z,-7.39
2022-12-15T01:05:16.592Z,-7.33
2022-12-15T01:08:03.207Z,-7.04
2022-12-15T01:10:48.617Z,-7.12
2022-12-15T01:13:34.196Z,-7.35
2022-12-15T01:16:19.778Z,-7.18
2022-12-15T01:19:04.940Z,-7.35
2022-12-15T01:21:33.333Z,-7.61
2022-12-15T01:24:02.407Z,-7.67
2022-12-15T01:26:30.138Z,-7.63
2022-12-15T01:28:57.933Z,-7.67
2022-12-15T01:31:25.660Z,-7.67
2022-12-15T01:33:54.494Z,-7.67
2022-12-15T01:36:22.192Z,-7.80
2022-12-15T01:38:54.099Z,-7.69
2022-12-15T01:41:22.924Z,-7.47
2022-12-15T01:43:50.746Z,-7.63
2022-12-15T01:46:21.043Z,-7.81
2022-12-15T01:48:53.335Z,-7.97
2022-12-15T01:51:27.825Z,-8.02
2022-12-15T01:54:01.479Z,-8.12
2022-12-15T01:56:37.718Z,-8.17
2022-12-15T01:59:08.626Z,-8.02
2022-12-15T02:01:36.680Z,-7.98
2022-12-15T02:04:04.725Z,-8.09
2022-12-15T02:06:32.478Z,-8.21
2022-12-15T02:09:02.169Z,-8.28
2022-12-15T02:11:45.651Z,-7.97
2022-12-15T02:14:18.812Z,-7.85
2022-12-15T02:17:03.010Z,-7.98
2022-12-15T02:19:49.955Z,-8.04
2022-12-15T02:22:28.304Z,-8.15
2022-12-15T02:25:11.265Z,-8.08
2022-12-15T02:27:56.535Z,-8.02
2022-12-15T02:30:34.374Z,-8.17
2022-12-15T02:33:11.320Z,-7.63
2022-12-15T02:35:48.807Z,-7.48
2022-12-15T02:38:16.650Z,-7.46
2022-12-15T02:40:44.365Z,-7.64
2022-12-15T02:43:12.382Z,-7.74
2022-12-15T02:45:55.539Z,-7.44
2022-12-15T02:48:30.626Z,-7.27
2022-12-15T02:51:20.995Z,-7.39
2022-12-15T02:54:07.887Z,-7.56
2022-12-15T02:56:42.310Z,-7.74
2022-12-15T02:59:15.894Z,-7.76
2022-12-15T03:01:50.824Z,-7.85
2022-12-15T03:04:20.261Z,-7.71
2022-12-15T03:06:59.051Z,-7.81
2022-12-15T03:09:28.796Z,-7.44
2022-12-15T03:11:56.578Z,-7.47
2022-12-15T03:14:25.410Z,-7.60
2022-12-15T03:16:55.597Z,-7.44
2022-12-15T03:19:24.034Z,-7.46
2022-12-15T03:21:51.818Z,-7.60
2022-12-15T03:24:19.789Z,-7.74
2022-12-15T03:26:49.923Z,-7.95
2022-12-15T03:29:18.035Z,-8.07
2022-12-15T03:31:46.125Z,-8.17
2022-12-15T03:34:18.964Z,-8.24
2022-12-15T03:36:46.926Z,-8.28
2022-12-15T03:39:14.773Z,-8.38
2022-12-15T03:41:42.804Z,-8.49
2022-12-15T03:44:10.681Z,-8.53
2022-12-15T03:46:38.470Z,-8.33
2022-12-15T03:49:06.852Z,-8.29
2022-12-15T03:51:36.000Z,-8.18
2022-12-15T03:54:03.770Z,-8.24
2022-12-15T03:56:32.397Z,-8.35
2022-12-15T03:59:00.181Z,-8.40
2022-12-15T04:01:30.108Z,-8.52
2022-12-15T04:04:01.201Z,-8.57
2022-12-15T04:06:29.992Z,-8.43
2022-12-15T04:08:59.294Z,-8.28
2022-12-15T04:11:27.112Z,-7.64
2022-12-15T04:13:55.027Z,-7.25
2022-12-15T04:16:22.984Z,-7.29
2022-12-15T04:19:10.903Z,-7.43
2022-12-15T04:21:37.673Z,-7.76
2022-12-15T04:24:24.995Z,-7.98
2022-12-15T04:27:10.256Z,-8.25
2022-12-15T04:29:55.665Z,-7.78
2022-12-15T04:32:41.537Z,-7.56
2022-12-15T04:35:27.248Z,-7.67
2022-12-15T04:38:12.503Z,-7.83
2022-12-15T04:40:59.249Z,-7.85
2022-12-15T04:43:44.447Z,-7.70
2022-12-15T04:46:29.870Z,-7.70
2022-12-15T04:49:15.166Z,-7.60
2022-12-15T04:52:00.088Z,-7.37
2022-12-15T04:54:45.418Z,-7.01
2022-12-15T04:57:32.088Z,-7.11
2022-12-15T05:00:17.251Z,-7.37
2022-12-15T05:03:02.733Z,-7.64
2022-12-15T05:05:47.980Z,-7.54
2022-12-15T05:08:33.355Z,-7.18
2022-12-15T05:11:18.763Z,-7.15
2022-12-15T05:14:05.498Z,-7.32
2022-12-15T05:16:51.013Z,-7.56
2022-12-15T05:19:36.112Z,-7.87
2022-12-15T05:22:21.532Z,-8.12
2022-12-15T05:25:06.577Z,-8.21
2022-12-15T05:27:51.993Z,-8.26
2022-12-15T05:30:38.800Z,-8.25
2022-12-15T05:33:06.807Z,-8.21
2022-12-15T05:35:34.527Z,-8.25
2022-12-15T05:38:02.428Z,-8.30
2022-12-15T05:40:30.257Z,-8.33
2022-12-15T05:42:58.996Z,-8.08
2022-12-15T05:45:28.662Z,-8.14
2022-12-15T05:47:57.088Z,-8.26
2022-12-15T05:50:24.876Z,-8.24
2022-12-15T05:52:52.807Z,-8.12
2022-12-15T05:55:20.583Z,-7.81
2022-12-15T05:57:52.150Z,-7.70
2022-12-15T06:00:20.436Z,-7.85
2022-12-15T06:02:49.980Z,-8.01
2022-12-15T06:05:18.328Z,-8.11
2022-12-15T06:07:46.131Z,-8.21
2022-12-15T06:10:13.999Z,-8.42
2022-12-15T06:12:41.808Z,-8.57
2022-12-15T06:15:10.407Z,-8.61
2022-12-15T06:17:38.138Z,-8.69
2022-12-15T06:20:08.555Z,-8.69
2022-12-15T06:22:36.302Z,-8.69
2022-12-15T06:25:04.312Z,-8.67
2022-12-15T06:27:32.129Z,-8.71
2022-12-15T06:29:59.869Z,-8.70
2022-12-15T06:32:27.682Z,-8.69
2022-12-15T06:34:55.465Z,-8.70
2022-12-15T06:37:24.555Z,-8.69
2022-12-15T06:39:52.433Z,-8.70
2022-12-15T06:42:20.141Z,-8.71
2022-12-15T06:44:47.885Z,-8.76
2022-12-15T06:47:18.618Z,-8.45
2022-12-15T06:49:46.363Z,-8.05
2022-12-15T06:52:14.216Z,-8.01
2022-12-15T06:54:43.447Z,-8.15
2022-12-15T06:57:11.046Z,-8.30
2022-12-15T06:59:39.192Z,-8.39
2022-12-15T07:02:14.642Z,-8.57
2022-12-15T07:04:42.624Z,-8.66
2022-12-15T07:07:10.817Z,-8.59
2022-12-15T07:09:38.598Z,-8.54
2022-12-15T07:12:08.492Z,-8.64
2022-12-15T07:14:36.229Z,-8.70
2022-12-15T07:17:04.169Z,-8.69
2022-12-15T07:19:31.981Z,-8.71
2022-12-15T07:22:01.271Z,-8.66
2022-12-15T07:24:29.017Z,-8.59
2022-12-15T07:26:57.152Z,-8.54
2022-12-15T07:29:26.362Z,-8.54
2022-12-15T07:31:54.181Z,-8.61
2022-12-15T07:34:21.980Z,-8.61
2022-12-15T07:36:52.479Z,-8.53
2022-12-15T07:39:21.166Z,-8.56
2022-12-15T07:41:49.260Z,-8.54
2022-12-15T07:44:17.501Z,-8.59
2022-12-15T07:46:49.080Z,-8.54
2022-12-15T07:49:17.316Z,-8.43
2022-12-15T07:51:45.408Z,-8.25
2022-12-15T07:54:14.052Z,-8.07
2022-12-15T07:56:42.428Z,-8.01
2022-12-15T07:59:10.345Z,-7.97
2022-12-15T08:01:38.269Z,-7.47
2022-12-15T08:04:07.660Z,-7.27
2022-12-15T08:06:35.307Z,-7.19
2022-12-15T08:09:03.386Z,-7.15
2022-12-15T08:11:35.183Z,-7.19
2022-12-15T08:14:05.459Z,-7.25
2022-12-15T08:16:36.496Z,-7.25
2022-12-15T08:19:05.774Z,-7.02
2022-12-15T08:21:34.978Z,-5.96
2022-12-15T08:24:02.991Z,-4.87
2022-12-15T08:26:31.676Z,-3.93
2022-12-15T08:29:31.992Z,-3.19
2022-12-15T08:31:52.204Z,-2.06
2022-12-15T08:34:20.547Z,-1.87
2022-12-15T08:36:49.912Z,-2.30
2022-12-15T08:39:17.557Z,-2.49
2022-12-15T08:41:45.762Z,-2.69
2022-12-15T08:44:13.627Z,-2.80
2022-12-15T08:46:41.461Z,-3.21
2022-12-15T08:49:09.805Z,-3.58
2022-12-15T08:51:37.562Z,-3.23
2022-12-15T08:54:06.771Z,-2.53
2022-12-15T08:56:34.546Z,-2.67
2022-12-15T08:59:03.519Z,-2.12
2022-12-15T09:01:33.148Z,-1.43
2022-12-15T09:04:02.061Z,-1.25
2022-12-15T09:06:32.369Z,-1.21
2022-12-15T09:09:02.513Z,-0.15
2022-12-15T09:11:32.635Z,1.10
2022-12-15T09:14:00.482Z,1.98
2022-12-15T09:16:29.027Z,2.84
2022-12-15T09:18:58.697Z,3.42
2022-12-15T09:21:28.031Z,3.70
2022-12-15T09:24:00.418Z,4.33
2022-12-15T09:26:32.225Z,4.79
2022-12-15T09:29:01.795Z,5.36
2022-12-15T09:31:32.515Z,6.13
2022-12-15T09:34:01.782Z,6.26
2022-12-15T09:36:30.836Z,6.88
2022-12-15T09:38:59.290Z,7.12
2022-12-15T09:41:29.422Z,6.98
2022-12-15T09:44:01.118Z,7.18
2022-12-15T09:46:41.128Z,7.49
2022-12-15T09:49:16.122Z,7.69
2022-12-15T09:51:52.019Z,7.96
2022-12-15T09:54:22.507Z,7.45
2022-12-15T09:56:55.886Z,6.63
2022-12-15T09:59:33.770Z,5.36
2022-12-15T10:02:18.296Z,4.65
2022-12-15T10:04:55.650Z,4.10
2022-12-15T10:07:30.610Z,3.62
2022-12-15T10:09:58.457Z,3.49
2022-12-15T10:12:30.776Z,3.12
2022-12-15T10:15:10.111Z,2.80
2022-12-15T10:17:42.300Z,2.56
2022-12-15T10:20:18.907Z,3.21
2022-12-15T10:22:50.326Z,4.16
2022-12-15T10:25:29.446Z,5.40
2022-12-15T10:28:12.424Z,5.77
2022-12-15T10:30:50.377Z,6.77
2022-12-15T10:33:20.968Z,6.93
2022-12-15T10:35:49.709Z,6.80
2022-12-15T10:38:25.670Z,7.51
2022-12-15T10:40:57.311Z,8.00
2022-12-15T10:43:28.432Z,8.31
2022-12-15T10:46:08.297Z,8.49
2022-12-15T10:48:36.731Z,8.69
2022-12-15T10:51:22.275Z,9.06
2022-12-15T10:53:52.683Z,8.68
2022-12-15T10:56:32.732Z,8.66
2022-12-15T10:59:24.631Z,9.13
2022-12-15T11:01:54.308Z,9.61
2022-12-15T11:04:28.735Z,9.64
2022-12-15T11:07:00.566Z,9.64
2022-12-15T11:09:34.057Z,10.18
2022-12-15T11:12:19.927Z,10.11
2022-12-15T11:14:49.397Z,10.33
2022-12-15T11:17:22.317Z,10.16
2022-12-15T11:20:01.863Z,10.19
2022-12-15T11:22:40.914Z,10.08
2022-12-15T11:25:25.577Z,9.70
2022-12-15T11:27:57.373Z,9.61
2022-12-15T11:30:27.588Z,9.37
2022-12-15T11:33:00.210Z,9.13
2022-12-15T11:35:34.044Z,9.17
2022-12-15T11:38:14.080Z,8.76
2022-12-15T11:40:43.200Z,8.31
2022-12-15T11:43:24.374Z,8.44
2022-12-15T11:46:19.700Z,8.11
2022-12-15T11:49:03.595Z,8.45
2022-12-15T11:51:40.523Z,8.95
2022-12-15T11:54:16.696Z,9.15
2022-12-15T11:56:49.100Z,9.31
2022-12-15T11:59:51.078Z,9.19
2022-12-15T12:02:45.198Z,8.85
2022-12-15T12:05:30.779Z,9.00
2022-12-15T12:08:08.762Z,9.34
2022-12-15T12:10:41.269Z,9.24
2022-12-15T12:13:21.480Z,9.10
2022-12-15T12:15:58.506Z,8.56
2022-12-15T12:18:29.934Z,8.56
2022-12-15T12:21:05.156Z,8.58
2022-12-15T12:23:39.593Z,7.25
2022-12-15T12:26:13.504Z,7.63
2022-12-15T12:28:48.720Z,8.04
2022-12-15T12:31:27.835Z,7.38
2022-12-15T12:33:59.395Z,7.35
2022-12-15T12:36:28.680Z,6.95
2022-12-15T12:38:59.198Z,6.80
2022-12-15T12:41:37.417Z,5.98
2022-12-15T12:44:12.153Z,4.59
2022-12-15T12:46:44.266Z,3.60
2022-12-15T12:49:22.839Z,3.58
2022-12-15T12:51:58.605Z,2.93
2022-12-15T12:54:44.119Z,2.23
2022-12-15T12:57:31.596Z,2.11
2022-12-15T13:00:02.670Z,2.06
2022-12-15T13:03:16.334Z,1.78
2022-12-15T13:05:47.129Z,1.65
2022-12-15T13:08:51.056Z,1.57
2022-12-15T13:11:56.358Z,1.58
2022-12-15T13:14:46.695Z,1.62
2022-12-15T13:17:27.217Z,1.61
2022-12-15T13:20:28.550Z,1.54
2022-12-15T13:23:18.756Z,1.58
2022-12-15T13:25:53.681Z,1.55
2022-12-15T13:28:32.380Z,1.58
2022-12-15T13:31:15.819Z,1.54
2022-12-15T13:33:56.363Z,1.48
2022-12-15T13:36:54.722Z,1.58
2022-12-15T13:39:56.109Z,1.50
2022-12-15T13:42:38.741Z,1.43
2022-12-15T13:45:51.197Z,1.39
2022-12-15T13:48:38.423Z,1.40
2022-12-15T13:51:30.136Z,1.37
2022-12-15T13:54:03.007Z,1.26
2022-12-15T13:56:58.301Z,1.23
2022-12-15T13:59:45.483Z,1.10
2022-12-15T14:02:26.065Z,1.01
2022-12-15T14:05:10.526Z,1.01
2022-12-15T14:07:38.679Z,0.93
2022-12-15T14:10:16.867Z,0.85
2022-12-15T14:12:45.725Z,0.73
2022-12-15T14:15:17.640Z,0.64
2022-12-15T14:17:49.875Z,0.61
2022-12-15T14:20:21.111Z,0.47
2022-12-15T14:22:52.510Z,0.40
2022-12-15T14:25:23.170Z,0.32
2022-12-15T14:27:51.726Z,0.18
2022-12-15T14:30:29.296Z,0.19
2022-12-15T14:33:06.925Z,0.17
2022-12-15T14:35:38.501Z,0.00
2022-12-15T14:38:09.222Z,-0.09
2022-12-15T14:40:38.757Z,-0.15
2022-12-15T14:43:10.287Z,-0.23
2022-12-15T14:45:39.530Z,-0.28
2022-12-15T14:51:00.803Z,-0.41
2022-12-15T14:53:32.822Z,-0.48
2022-12-15T14:56:15.674Z,-0.61
2022-12-15T14:58:43.640Z,-0.62
2022-12-15T15:01:25.850Z,-0.74
2022-12-15T15:04:04.124Z,-0.89
2022-12-15T15:06:36.000Z,-0.97
2022-12-15T15:09:21.107Z,-1.07
2022-12-15T15:11:51.387Z,-1.17
2022-12-15T15:14:23.657Z,-1.35
2022-12-15T15:17:06.053Z,-1.39
2022-12-15T15:19:39.620Z,-1.48
2022-12-15T15:22:30.549Z,-1.57
2022-12-15T15:24:58.374Z,-1.68
2022-12-15T15:27:37.398Z,-1.60
2022-12-15T15:30:17.255Z,-1.58
2022-12-15T15:32:54.406Z,-1.64
2022-12-15T15:35:23.326Z,-1.79
2022-12-15T15:37:53.183Z,-1.91
2022-12-15T15:40:21.004Z,-1.98
2022-12-15T15:42:49.302Z,-2.12
2022-12-15T15:45:17.244Z,-2.25
2022-12-15T15:47:48.272Z,-2.39
2022-12-15T15:50:22.209Z,-2.43
2022-12-15T15:52:50.098Z,-2.43
2022-12-15T15:55:28.331Z,-2.57
2022-12-15T15:57:56.258Z,-2.63
2022-12-15T16:00:26.197Z,-2.71
2022-12-15T16:02:54.571Z,-2.80
2022-12-15T16:05:23.911Z,-2.60
2022-12-15T16:07:51.751Z,-2.63
2022-12-15T16:10:20.883Z,-2.60
2022-12-15T16:12:51.819Z,-2.69
2022-12-15T16:15:21.926Z,-2.77
2022-12-15T16:17:50.415Z,-2.73
2022-12-15T16:20:21.201Z,-2.70
2022-12-15T16:22:55.761Z,-2.69
2022-12-15T16:25:33.116Z,-2.63
2022-12-15T16:28:14.171Z,-2.66
2022-12-15T16:30:43.140Z,-2.90
2022-12-15T16:33:11.928Z,-3.02
2022-12-15T16:35:40.387Z,-3.21
2022-12-15T16:38:15.825Z,-3.39
2022-12-15T16:40:43.979Z,-3.55
2022-12-15T16:43:16.018Z,-3.72
2022-12-15T16:45:45.774Z,-3.84
2022-12-15T16:48:14.290Z,-3.93
2022-12-15T16:50:43.998Z,-4.05
2022-12-15T16:53:17.239Z,-4.18
2022-12-15T16:55:46.191Z,-4.27
2022-12-15T16:58:16.915Z,-4.29
2022-12-15T17:00:45.767Z,-4.36
2022-12-15T17:03:14.756Z,-4.42
2022-12-15T17:05:44.776Z,-4.51
2022-12-15T17:08:19.195Z,-4.48
2022-12-15T17:10:48.349Z,-4.34
2022-12-15T17:13:22.727Z,-4.24
2022-12-15T17:15:50.616Z,-3.98
2022-12-15T17:18:18.466Z,-3.91
2022-12-15T17:20:46.331Z,-3.93
2022-12-15T17:23:21.009Z,-4.08
2022-12-15T17:26:21.150Z,-4.31
2022-12-15T17:28:39.088Z,-4.46
2022-12-15T17:31:06.987Z,-4.59
2022-12-15T17:33:35.949Z,-4.66
2022-12-15T17:36:12.865Z,-4.68
2022-12-15T17:38:42.000Z,-4.82
2022-12-15T17:41:23.637Z,-4.93
2022-12-15T17:46:48.812Z,-5.00
2022-12-15T17:49:16.944Z,-5.03
2022-12-15T17:51:45.384Z,-5.18
2022-12-15T17:54:17.006Z,-5.24
2022-12-15T17:56:47.365Z,-5.31
2022-12-15T17:59:16.706Z,-5.34
2022-12-15T18:01:44.378Z,-5.35
2022-12-15T18:04:12.659Z,-5.27
2022-12-15T18:06:42.042Z,-5.27
2022-12-15T18:09:14.071Z,-5.28
2022-12-15T18:11:45.124Z,-5.06
2022-12-15T18:14:14.755Z,-5.10
2022-12-15T18:16:42.613Z,-5.17
2022-12-15T18:19:10.487Z,-5.21
2022-12-15T18:21:38.615Z,-5.24
2022-12-15T18:24:13.206Z,-5.32
2022-12-15T18:26:41.001Z,-5.42
2022-12-15T18:29:14.411Z,-5.48
2022-12-15T18:31:42.729Z,-5.48
2022-12-15T18:34:13.666Z,-5.48
2022-12-15T18:36:41.521Z,-5.46
2022-12-15T18:39:18.085Z,-5.48
2022-12-15T18:41:46.596Z,-5.52
2022-12-15T18:44:22.535Z,-5.62
2022-12-15T18:46:51.294Z,-5.57
2022-12-15T18:49:21.553Z,-5.40
2022-12-15T18:51:50.247Z,-5.42
2022-12-15T18:54:19.760Z,-5.44
2022-12-15T18:56:50.520Z,-5.41
2022-12-15T18:59:20.877Z,-5.21
2022-12-15T19:01:49.807Z,-4.97
2022-12-15T19:04:17.818Z,-5.04
2022-12-15T19:06:45.995Z,-5.10
2022-12-15T19:09:17.766Z,-5.28
2022-12-15T19:12:17.608Z,-5.41
2022-12-15T19:14:47.741Z,-5.24
2022-12-15T19:17:35.283Z,-5.17
2022-12-15T19:20:22.303Z,-4.95
2022-12-15T19:22:50.604Z,-4.46
2022-12-15T19:25:25.508Z,-4.51
2022-12-15T19:27:58.429Z,-4.83
2022-12-15T19:30:28.964Z,-5.07
2022-12-15T19:32:57.130Z,-5.32
2022-12-15T19:35:25.375Z,-5.52
2022-12-15T19:37:57.715Z,-5.69
2022-12-15T19:40:30.125Z,-5.77
2022-12-15T19:42:59.132Z,-5.85
2022-12-15T19:45:30.127Z,-5.92
2022-12-15T19:47:58.202Z,-5.89
2022-12-15T19:50:28.797Z,-5.65
2022-12-15T19:53:00.624Z,-5.69
2022-12-15T19:55:32.505Z,-5.88
2022-12-15T19:58:00.832Z,-6.09
2022-12-15T20:00:29.967Z,-6.06
2022-12-15T20:02:58.017Z,-5.96
2022-12-15T20:05:26.720Z,-5.96
2022-12-15T20:07:55.433Z,-6.03
2022-12-15T20:10:32.311Z,-6.17
2022-12-15T20:13:00.828Z,-6.40
2022-12-15T20:15:30.045Z,-6.51
2022-12-15T20:17:58.097Z,-6.63
2022-12-15T20:20:27.872Z,-6.65
2022-12-15T20:22:57.333Z,-6.71
2022-12-15T20:25:28.479Z,-6.78
2022-12-15T20:27:56.940Z,-6.85
2022-12-15T20:30:27.118Z,-6.85
2022-12-15T20:32:56.321Z,-6.65
2022-12-15T20:35:23.952Z,-6.47
2022-12-15T20:37:52.518Z,-6.44
2022-12-15T20:40:23.687Z,-6.45
2022-12-15T20:42:52.773Z,-6.22
2022-12-15T20:45:23.165Z,-6.05
2022-12-15T20:47:53.192Z,-5.91
2022-12-15T20:50:29.306Z,-5.98
2022-12-15T20:52:57.112Z,-5.99
2022-12-15T20:55:25.026Z,-6.13
2022-12-15T20:57:53.552Z,-5.99
2022-12-15T21:00:22.634Z,-5.82
2022-12-15T21:02:51.980Z,-5.77
2022-12-15T21:05:22.271Z,-5.96
2022-12-15T21:07:51.691Z,-6.09
2022-12-15T21:10:21.318Z,-6.12
2022-12-15T21:12:50.504Z,-5.96
2022-12-15T21:15:20.909Z,-5.95
2022-12-15T21:17:57.245Z,-6.10
2022-12-15T21:20:39.619Z,-6.33
2022-12-15T21:23:19.666Z,-6.23
2022-12-15T21:25:48.249Z,-6.36
2022-12-15T21:28:16.348Z,-6.33
2022-12-15T21:30:44.792Z,-6.43
2022-12-15T21:33:12.941Z,-6.53
2022-12-15T21:35:42.360Z,-6.65
2022-12-15T21:38:21.048Z,-6.74
2022-12-15T21:40:48.863Z,-6.85
2022-12-15T21:43:16.696Z,-7.01
2022-12-15T21:45:44.473Z,-7.08
2022-12-15T21:48:31.011Z,-7.01
2022-12-15T21:50:59.045Z,-7.05
2022-12-15T21:53:28.249Z,-6.82
2022-12-15T21:55:57.452Z,-6.63
2022-12-15T21:58:27.297Z,-6.43
2022-12-15T22:00:55.207Z,-6.54
2022-12-15T22:03:23.018Z,-6.67
2022-12-15T22:05:50.811Z,-6.71
2022-12-15T22:08:21.948Z,-6.87
2022-12-15T22:10:52.927Z,-6.96
2022-12-15T22:13:23.903Z,-6.84
2022-12-15T22:15:51.959Z,-6.80
2022-12-15T22:18:22.269Z,-6.74
2022-12-15T22:20:52.381Z,-6.65
2022-12-15T22:23:21.340Z,-6.78
2022-12-15T22:25:55.985Z,-6.80
2022-12-15T22:28:26.516Z,-6.89
2022-12-15T22:30:55.891Z,-6.58
2022-12-15T22:33:25.623Z,-6.60
2022-12-15T22:35:54.915Z,-6.74
2022-12-15T22:38:23.952Z,-6.95
2022-12-15T22:40:55.488Z,-7.13
2022-12-15T22:43:27.547Z,-7.32
2022-12-15T22:45:56.310Z,-7.40
2022-12-15T22:48:26.427Z,-7.51
2022-12-15T22:50:54.257Z,-7.57
2022-12-15T22:53:22.935Z,-7.46
2022-12-15T22:55:51.041Z,-7.25
2022-12-15T22:58:27.514Z,-7.20
2022-12-15T23:00:57.695Z,-7.13
2022-12-15T23:03:28.819Z,-7.05
2022-12-15T23:05:58.555Z,-6.80
2022-12-15T23:08:26.309Z,-6.64
2022-12-15T23:11:11.565Z,-6.72
2022-12-15T23:13:40.718Z,-6.81
2022-12-15T23:16:21.408Z,-6.78
2022-12-15T23:18:50.750Z,-6.96
2022-12-15T23:21:21.016Z,-7.04
2022-12-15T23:23:49.166Z,-7.15
2022-12-15T23:26:19.017Z,-7.29
2022-12-15T23:28:48.722Z,-7.37
2022-12-15T23:31:17.066Z,-7.53
2022-12-15T23:33:44.823Z,-7.64
2022-12-15T23:36:13.156Z,-7.66
2022-12-15T23:38:40.921Z,-7.57
2022-12-15T23:41:08.656Z,-7.67
2022-12-15T23:43:36.397Z,-7.43
2022-12-15T23:46:07.582Z,-7.26
2022-12-15T23:48:38.564Z,-7.23
2022-12-15T23:51:08.882Z,-7.19
2022-12-15T23:53:38.762Z,-7.29
2022-12-15T23:56:09.549Z,-7.29
2022-12-15T23:58:38.011Z,-7.36
